< Cyclone 202012 2021 Season
Cyclone 202123 (Odette)
General InformationDetailed Track InformationTrack Information on Google Maps || ResourceGoogle EarthGE AnimationAtom FeedGeoJSON
Year Month Day Hour Lat. Long. Wind (kt) Gust (kt) Direc. of Major Storm Axis Radius of Major Storm Axis (nm) Radius of Minor Storm Axis (nm) Direc. of Major Gale Axis Radius of Major Gale Axis (nm) Radius of Minor Gale Axis (nm) Image
2021 4 3 00 -10.4 102.7 15 35 symmetric - - symmetric - - Image
2021 4 3 06 -10.5 103.1 15 35 symmetric - - symmetric - - Image
2021 4 3 12 -10.9 103.6 15 35 symmetric - - symmetric - - Image
2021 4 3 18 -11.8 104.0 15 35 symmetric - - symmetric - - Image
2021 4 4 00 -12.8 104.4 15 35 symmetric - - symmetric - - Image
2021 4 4 06 -13.5 104.6 25 45 symmetric - - symmetric - - Image
2021 4 4 12 -14.0 104.9 30 45 symmetric - - symmetric - - Image
2021 4 4 18 -14.4 105.0 35 50 symmetric - - symmetric - - Image
2021 4 5 00 -14.7 105.2 35 50 symmetric - - symmetric - - Image
2021 4 5 06 -15.1 105.4 35 50 symmetric - - symmetric - - Image
2021 4 5 12 -15.9 105.5 35 50 symmetric - - symmetric - - Image
2021 4 5 18 -16.2 105.4 40 55 symmetric - - symmetric - - Image
2021 4 6 00 -16.3 105.3 35 50 symmetric - - symmetric - - Image
2021 4 6 06 -15.9 105.7 35 50 symmetric - - symmetric - - Image
2021 4 6 12 -16.1 106.0 35 50 symmetric - - symmetric - - Image
2021 4 6 18 -16.4 105.8 35 50 symmetric - - symmetric - - Image
2021 4 7 00 -16.3 105.4 35 50 symmetric - - symmetric - - Image
2021 4 7 06 -16.0 105.6 35 50 symmetric - - symmetric - - Image
2021 4 7 12 -16.4 105.9 35 50 symmetric - - symmetric - - Image
2021 4 7 18 -16.3 105.6 40 55 symmetric - - symmetric - - Image
2021 4 8 00 -15.9 105.5 40 55 symmetric - - symmetric - - Image
2021 4 8 06 -15.5 105.4 35 50 symmetric - - symmetric - - Image
2021 4 8 12 -14.9 105.6 40 55 symmetric - - symmetric - - Image
2021 4 8 18 -14.2 106.8 40 55 symmetric - - symmetric - - Image
2021 4 9 00 -14.1 107.7 45 65 symmetric - - symmetric - - Image
2021 4 9 06 -14.8 109.2 45 65 symmetric - - symmetric - - Image
2021 4 9 12 -15.7 110.9 40 55 symmetric - - symmetric - - Image
2021 4 9 18 -17.0 112.2 40 55 symmetric - - symmetric - - Image
2021 4 10 00 -18.8 112.8 40 55 symmetric - - symmetric - - Image
2021 4 10 06 -20.9 112.8 35 50 symmetric - - symmetric - - Image
2021 4 10 12 -23.4 111.9 30 45 symmetric - - symmetric - - Image
< Cyclone 202012 2021 Season

Help